Belgaum Airport


Codes: VABM/IXG
Name: Belgaum Airport
City: Belgaum
Country: India
Elevation: 2487 ft.
Wikipedia:

Photos at Belgaum Airport


   Photos courtesy of SpottingLog. You can add your own sightings and photos by signing up for a free trial today.



No photos found.

Weather at Belgaum Airport


Time (UTC)DescriptionTempratureWindCloud coverageVisibilityPressureHumidity
21-Jun-2024 12:00Light Rain27°C13 mph, W58%10000m1008hPa79%
21-Jun-2024 15:00Light Rain25°C11 mph, W76%10000m1008hPa84%
21-Jun-2024 18:00Light Rain23°C9 mph, SW93%10000m1008hPa88%
21-Jun-2024 21:00Light Rain22°C9 mph, SW91%10000m1006hPa88%
22-Jun-2024 00:00Overcast Clouds23°C9 mph, W95%10000m1006hPa89%
22-Jun-2024 03:00Light Rain25°C11 mph, W91%10000m1007hPa78%
22-Jun-2024 06:00Overcast Clouds28°C16 mph, W92%10000m1006hPa63%
22-Jun-2024 09:00Light Rain28°C16 mph, W100%10000m1004hPa64%
22-Jun-2024 12:00Light Rain26°C16 mph, W100%10000m1004hPa69%
22-Jun-2024 15:00Overcast Clouds23°C11 mph, W99%10000m1006hPa85%
22-Jun-2024 18:00Overcast Clouds23°C11 mph, SW94%10000m1007hPa88%
22-Jun-2024 21:00Light Rain22°C9 mph, SW100%10000m1005hPa89%
23-Jun-2024 00:00Light Rain22°C9 mph, SW99%10000m1005hPa90%
23-Jun-2024 03:00Overcast Clouds24°C9 mph, W95%10000m1007hPa82%
23-Jun-2024 06:00Broken Clouds28°C13 mph, W82%10000m1005hPa61%
23-Jun-2024 09:00Light Rain28°C16 mph, W75%10000m1003hPa60%
23-Jun-2024 12:00Moderate Rain25°C16 mph, W88%10000m1004hPa76%
23-Jun-2024 15:00Overcast Clouds22°C16 mph, SW100%10000m1006hPa88%
23-Jun-2024 18:00Overcast Clouds22°C11 mph, SW100%10000m1006hPa90%
23-Jun-2024 21:00Overcast Clouds22°C11 mph, SW100%10000m1004hPa90%
24-Jun-2024 00:00Overcast Clouds22°C11 mph, SW97%10000m1005hPa88%
24-Jun-2024 03:00Light Rain22°C11 mph, W100%10000m1006hPa87%
24-Jun-2024 06:00Light Rain25°C16 mph, W99%10000m1005hPa72%
24-Jun-2024 09:00Moderate Rain22°C16 mph, W100%10000m1004hPa87%
24-Jun-2024 12:00Moderate Rain22°C16 mph, W95%7025m1004hPa91%
24-Jun-2024 15:00Moderate Rain21°C11 mph, SW100%2763m1006hPa93%
24-Jun-2024 18:00Light Rain21°C13 mph, SW100%10000m1006hPa93%
24-Jun-2024 21:00Overcast Clouds21°C13 mph, SW95%10000m1004hPa93%
25-Jun-2024 00:00Overcast Clouds21°C13 mph, SW93%10000m1004hPa91%
25-Jun-2024 03:00Overcast Clouds22°C13 mph, SW100%10000m1005hPa88%
25-Jun-2024 06:00Light Rain21°C11 mph, SW100%2785m1006hPa92%
25-Jun-2024 09:00Moderate Rain22°C11 mph, SW99%10000m1004hPa92%
25-Jun-2024 12:00Heavy Intensity Rain21°C20 mph, W100%6829m1005hPa93%
25-Jun-2024 15:00Moderate Rain20°C11 mph, W97%10000m1006hPa92%
25-Jun-2024 18:00Light Rain21°C9 mph, SW99%7468m1006hPa97%
25-Jun-2024 21:00Overcast Clouds21°C9 mph, N100%0m1004hPa96%
26-Jun-2024 00:00Overcast Clouds21°C9 mph, SW100%9725m1005hPa95%
26-Jun-2024 03:00Light Rain22°C16 mph, SW98%10000m1006hPa88%
26-Jun-2024 06:00Overcast Clouds24°C18 mph, W92%10000m1006hPa79%
26-Jun-2024 09:00Light Rain26°C20 mph, W90%10000m1004hPa68%